sensor_id;sensor_type;location;lat;lon;timestamp;P1;durP1;ratioP1;P2;durP2;ratioP2
1467;SDS011;727;48.892;9.544;2023-06-14T00:00:33;5.97;;;5.37;;
1467;SDS011;727;48.892;9.544;2023-06-14T00:03:01;5.20;;;4.80;;
1467;SDS011;727;48.892;9.544;2023-06-14T00:05:29;7.57;;;4.83;;
1467;SDS011;727;48.892;9.544;2023-06-14T00:07:58;6.07;;;5.50;;
1467;SDS011;727;48.892;9.544;2023-06-14T00:10:25;5.33;;;4.67;;
1467;SDS011;727;48.892;9.544;2023-06-14T00:12:57;5.13;;;4.63;;
1467;SDS011;727;48.892;9.544;2023-06-14T00:15:24;5.70;;;4.60;;
1467;SDS011;727;48.892;9.544;2023-06-14T00:17:51;6.00;;;5.30;;
1467;SDS011;727;48.892;9.544;2023-06-14T00:20:19;5.50;;;4.60;;
1467;SDS011;727;48.892;9.544;2023-06-14T00:22:47;6.07;;;5.10;;
1467;SDS011;727;48.892;9.544;2023-06-14T00:25:15;5.63;;;5.13;;
1467;SDS011;727;48.892;9.544;2023-06-14T00:27:42;5.77;;;5.27;;
1467;SDS011;727;48.892;9.544;2023-06-14T00:30:11;5.37;;;4.87;;
1467;SDS011;727;48.892;9.544;2023-06-14T00:32:39;6.33;;;5.83;;
1467;SDS011;727;48.892;9.544;2023-06-14T00:35:07;5.70;;;5.20;;
1467;SDS011;727;48.892;9.544;2023-06-14T00:37:34;5.00;;;4.50;;
1467;SDS011;727;48.892;9.544;2023-06-14T00:40:05;7.73;;;4.93;;
1467;SDS011;727;48.892;9.544;2023-06-14T00:42:35;6.37;;;5.40;;
1467;SDS011;727;48.892;9.544;2023-06-14T00:45:02;5.37;;;4.97;;
1467;SDS011;727;48.892;9.544;2023-06-14T00:47:41;7.43;;;4.90;;
1467;SDS011;727;48.892;9.544;2023-06-14T00:50:09;5.57;;;5.07;;
1467;SDS011;727;48.892;9.544;2023-06-14T00:52:38;5.00;;;4.60;;
1467;SDS011;727;48.892;9.544;2023-06-14T00:55:06;9.37;;;5.30;;
1467;SDS011;727;48.892;9.544;2023-06-14T00:57:35;5.10;;;4.20;;
1467;SDS011;727;48.892;9.544;2023-06-14T01:00:05;4.40;;;4.00;;
1467;SDS011;727;48.892;9.544;2023-06-14T01:02:36;9.63;;;5.80;;
1467;SDS011;727;48.892;9.544;2023-06-14T01:05:03;4.93;;;4.53;;
1467;SDS011;727;48.892;9.544;2023-06-14T01:07:33;6.50;;;5.13;;
1467;SDS011;727;48.892;9.544;2023-06-14T01:10:10;5.60;;;5.10;;
1467;SDS011;727;48.892;9.544;2023-06-14T01:12:47;5.70;;;5.20;;
1467;SDS011;727;48.892;9.544;2023-06-14T01:15:20;6.50;;;5.80;;
1467;SDS011;727;48.892;9.544;2023-06-14T01:17:50;6.60;;;5.70;;
1467;SDS011;727;48.892;9.544;2023-06-14T01:20:19;7.13;;;5.20;;
1467;SDS011;727;48.892;9.544;2023-06-14T01:22:51;5.37;;;4.87;;
1467;SDS011;727;48.892;9.544;2023-06-14T01:25:19;7.03;;;5.43;;
1467;SDS011;727;48.892;9.544;2023-06-14T01:27:48;6.43;;;5.83;;
1467;SDS011;727;48.892;9.544;2023-06-14T01:30:16;7.63;;;5.87;;
1467;SDS011;727;48.892;9.544;2023-06-14T01:32:44;5.67;;;5.10;;
1467;SDS011;727;48.892;9.544;2023-06-14T01:35:12;6.80;;;4.80;;
1467;SDS011;727;48.892;9.544;2023-06-14T01:37:39;7.10;;;6.40;;
1467;SDS011;727;48.892;9.544;2023-06-14T01:40:10;9.40;;;6.07;;
1467;SDS011;727;48.892;9.544;2023-06-14T01:42:38;5.83;;;5.00;;
1467;SDS011;727;48.892;9.544;2023-06-14T01:45:06;5.40;;;4.90;;
1467;SDS011;727;48.892;9.544;2023-06-14T01:47:34;5.27;;;4.80;;
1467;SDS011;727;48.892;9.544;2023-06-14T01:50:02;6.10;;;5.50;;
1467;SDS011;727;48.892;9.544;2023-06-14T01:52:30;6.40;;;5.80;;
1467;SDS011;727;48.892;9.544;2023-06-14T01:54:57;7.93;;;5.13;;
1467;SDS011;727;48.892;9.544;2023-06-14T01:57:28;7.30;;;5.60;;
1467;SDS011;727;48.892;9.544;2023-06-14T01:59:55;5.13;;;4.73;;
1467;SDS011;727;48.892;9.544;2023-06-14T02:02:22;6.77;;;5.47;;
1467;SDS011;727;48.892;9.544;2023-06-14T02:04:50;7.93;;;6.17;;
1467;SDS011;727;48.892;9.544;2023-06-14T02:07:17;7.93;;;7.13;;
1467;SDS011;727;48.892;9.544;2023-06-14T02:09:44;6.13;;;5.53;;
1467;SDS011;727;48.892;9.544;2023-06-14T02:12:11;6.40;;;5.70;;
1467;SDS011;727;48.892;9.544;2023-06-14T02:14:39;6.27;;;5.67;;
1467;SDS011;727;48.892;9.544;2023-06-14T02:17:06;6.53;;;5.93;;
1467;SDS011;727;48.892;9.544;2023-06-14T02:19:33;5.67;;;5.17;;
1467;SDS011;727;48.892;9.544;2023-06-14T02:22:00;9.70;;;5.60;;
1467;SDS011;727;48.892;9.544;2023-06-14T02:24:27;5.30;;;4.80;;
1467;SDS011;727;48.892;9.544;2023-06-14T02:26:54;14.60;;;7.33;;
1467;SDS011;727;48.892;9.544;2023-06-14T02:29:21;5.90;;;5.30;;
1467;SDS011;727;48.892;9.544;2023-06-14T02:31:50;6.68;;;5.30;;
1467;SDS011;727;48.892;9.544;2023-06-14T02:34:17;6.30;;;5.70;;
1467;SDS011;727;48.892;9.544;2023-06-14T02:36:45;6.50;;;5.37;;
1467;SDS011;727;48.892;9.544;2023-06-14T02:39:13;6.10;;;5.50;;
1467;SDS011;727;48.892;9.544;2023-06-14T02:41:40;5.80;;;5.30;;
1467;SDS011;727;48.892;9.544;2023-06-14T02:44:07;6.28;;;5.65;;
1467;SDS011;727;48.892;9.544;2023-06-14T02:46:33;6.47;;;5.82;;
1467;SDS011;727;48.892;9.544;2023-06-14T02:49:02;11.25;;;6.72;;
1467;SDS011;727;48.892;9.544;2023-06-14T02:51:29;6.82;;;5.05;;
1467;SDS011;727;48.892;9.544;2023-06-14T02:53:56;6.75;;;5.70;;
1467;SDS011;727;48.892;9.544;2023-06-14T02:56:23;5.20;;;4.70;;
1467;SDS011;727;48.892;9.544;2023-06-14T02:58:51;5.50;;;5.00;;
1467;SDS011;727;48.892;9.544;2023-06-14T03:01:18;5.68;;;5.28;;
1467;SDS011;727;48.892;9.544;2023-06-14T03:03:46;5.65;;;5.05;;
1467;SDS011;727;48.892;9.544;2023-06-14T03:06:15;6.13;;;5.55;;
1467;SDS011;727;48.892;9.544;2023-06-14T03:08:42;6.97;;;5.70;;
1467;SDS011;727;48.892;9.544;2023-06-14T03:11:09;7.28;;;6.22;;
1467;SDS011;727;48.892;9.544;2023-06-14T03:13:35;6.20;;;5.55;;
1467;SDS011;727;48.892;9.544;2023-06-14T03:16:03;6.65;;;5.90;;
1467;SDS011;727;48.892;9.544;2023-06-14T03:18:32;6.88;;;6.25;;
1467;SDS011;727;48.892;9.544;2023-06-14T03:21:01;7.93;;;6.30;;
1467;SDS011;727;48.892;9.544;2023-06-14T03:23:29;5.75;;;5.35;;
1467;SDS011;727;48.892;9.544;2023-06-14T03:25:56;5.60;;;5.10;;
1467;SDS011;727;48.892;9.544;2023-06-14T03:28:23;6.45;;;5.85;;
1467;SDS011;727;48.892;9.544;2023-06-14T03:30:50;7.75;;;6.10;;
1467;SDS011;727;48.892;9.544;2023-06-14T03:33:18;7.00;;;5.45;;
1467;SDS011;727;48.892;9.544;2023-06-14T03:35:46;7.30;;;6.50;;
1467;SDS011;727;48.892;9.544;2023-06-14T03:38:12;7.00;;;6.10;;
1467;SDS011;727;48.892;9.544;2023-06-14T03:40:41;10.93;;;6.35;;
1467;SDS011;727;48.892;9.544;2023-06-14T03:43:09;7.50;;;6.85;;
1467;SDS011;727;48.892;9.544;2023-06-14T03:45:36;8.65;;;7.78;;
1467;SDS011;727;48.892;9.544;2023-06-14T03:48:03;7.35;;;6.65;;
1467;SDS011;727;48.892;9.544;2023-06-14T03:50:31;11.95;;;6.20;;
1467;SDS011;727;48.892;9.544;2023-06-14T03:53:00;8.07;;;7.28;;
1467;SDS011;727;48.892;9.544;2023-06-14T03:55:27;10.65;;;6.35;;
1467;SDS011;727;48.892;9.544;2023-06-14T03:57:57;6.80;;;6.30;;
1467;SDS011;727;48.892;9.544;2023-06-14T04:00:24;7.05;;;6.32;;
1467;SDS011;727;48.892;9.544;2023-06-14T04:02:51;8.55;;;5.82;;
1467;SDS011;727;48.892;9.544;2023-06-14T04:05:19;8.27;;;6.35;;
1467;SDS011;727;48.892;9.544;2023-06-14T04:07:46;7.10;;;6.40;;
1467;SDS011;727;48.892;9.544;2023-06-14T04:10:13;7.60;;;5.70;;
1467;SDS011;727;48.892;9.544;2023-06-14T04:12:41;6.55;;;5.80;;
1467;SDS011;727;48.892;9.544;2023-06-14T04:15:10;7.05;;;6.43;;
1467;SDS011;727;48.892;9.544;2023-06-14T04:17:37;6.68;;;5.93;;
1467;SDS011;727;48.892;9.544;2023-06-14T04:20:05;8.85;;;6.25;;
1467;SDS011;727;48.892;9.544;2023-06-14T04:22:34;7.90;;;6.07;;
1467;SDS011;727;48.892;9.544;2023-06-14T04:25:01;9.82;;;6.45;;
1467;SDS011;727;48.892;9.544;2023-06-14T04:27:28;10.98;;;6.32;;
1467;SDS011;727;48.892;9.544;2023-06-14T04:29:59;13.98;;;8.13;;
1467;SDS011;727;48.892;9.544;2023-06-14T04:32:29;7.13;;;6.43;;
1467;SDS011;727;48.892;9.544;2023-06-14T04:34:58;6.50;;;6.00;;
1467;SDS011;727;48.892;9.544;2023-06-14T04:37:27;11.30;;;7.57;;
1467;SDS011;727;48.892;9.544;2023-06-14T04:39:55;7.70;;;7.00;;
1467;SDS011;727;48.892;9.544;2023-06-14T04:42:22;8.20;;;7.50;;
1467;SDS011;727;48.892;9.544;2023-06-14T04:44:50;8.53;;;7.73;;
1467;SDS011;727;48.892;9.544;2023-06-14T04:47:21;8.50;;;7.00;;
1467;SDS011;727;48.892;9.544;2023-06-14T04:49:51;8.77;;;7.90;;
1467;SDS011;727;48.892;9.544;2023-06-14T04:52:19;11.80;;;8.10;;
1467;SDS011;727;48.892;9.544;2023-06-14T04:54:46;8.93;;;8.07;;
1467;SDS011;727;48.892;9.544;2023-06-14T04:57:13;7.80;;;7.10;;
1467;SDS011;727;48.892;9.544;2023-06-14T04:59:42;10.27;;;8.30;;
1467;SDS011;727;48.892;9.544;2023-06-14T05:02:09;7.20;;;6.60;;
1467;SDS011;727;48.892;9.544;2023-06-14T05:04:36;10.63;;;7.33;;
1467;SDS011;727;48.892;9.544;2023-06-14T05:07:07;8.40;;;7.50;;
1467;SDS011;727;48.892;9.544;2023-06-14T05:09:35;10.70;;;7.53;;
1467;SDS011;727;48.892;9.544;2023-06-14T05:12:02;12.30;;;8.60;;
1467;SDS011;727;48.892;9.544;2023-06-14T05:14:29;8.80;;;7.30;;
1467;SDS011;727;48.892;9.544;2023-06-14T05:16:56;7.60;;;6.80;;
1467;SDS011;727;48.892;9.544;2023-06-14T05:19:37;14.10;;;8.50;;
1467;SDS011;727;48.892;9.544;2023-06-14T05:22:06;9.13;;;7.67;;
1467;SDS011;727;48.892;9.544;2023-06-14T05:24:33;12.33;;;7.73;;
1467;SDS011;727;48.892;9.544;2023-06-14T05:27:00;7.50;;;6.77;;
1467;SDS011;727;48.892;9.544;2023-06-14T05:29:27;9.07;;;8.10;;
1467;SDS011;727;48.892;9.544;2023-06-14T05:31:54;10.73;;;8.13;;
1467;SDS011;727;48.892;9.544;2023-06-14T05:34:21;8.47;;;7.30;;
1467;SDS011;727;48.892;9.544;2023-06-14T05:36:48;12.13;;;7.83;;
1467;SDS011;727;48.892;9.544;2023-06-14T05:39:16;8.80;;;7.63;;
1467;SDS011;727;48.892;9.544;2023-06-14T05:41:43;7.67;;;6.90;;
1467;SDS011;727;48.892;9.544;2023-06-14T05:44:10;11.97;;;7.40;;
1467;SDS011;727;48.892;9.544;2023-06-14T05:46:37;11.00;;;7.03;;
1467;SDS011;727;48.892;9.544;2023-06-14T05:49:05;7.57;;;6.67;;
1467;SDS011;727;48.892;9.544;2023-06-14T05:51:32;8.07;;;7.27;;
1467;SDS011;727;48.892;9.544;2023-06-14T05:53:59;9.50;;;7.53;;
1467;SDS011;727;48.892;9.544;2023-06-14T05:56:27;8.77;;;7.17;;
1467;SDS011;727;48.892;9.544;2023-06-14T05:58:54;9.87;;;7.83;;
1467;SDS011;727;48.892;9.544;2023-06-14T06:01:21;8.70;;;7.80;;
1467;SDS011;727;48.892;9.544;2023-06-14T06:03:48;11.33;;;6.67;;
1467;SDS011;727;48.892;9.544;2023-06-14T06:06:15;9.20;;;7.40;;
1467;SDS011;727;48.892;9.544;2023-06-14T06:08:42;7.00;;;6.30;;
1467;SDS011;727;48.892;9.544;2023-06-14T06:11:09;7.60;;;6.93;;
1467;SDS011;727;48.892;9.544;2023-06-14T06:13:38;10.13;;;6.43;;
1467;SDS011;727;48.892;9.544;2023-06-14T06:16:05;14.73;;;7.20;;
1467;SDS011;727;48.892;9.544;2023-06-14T06:18:32;13.93;;;7.17;;
1467;SDS011;727;48.892;9.544;2023-06-14T06:20:59;11.03;;;6.10;;
1467;SDS011;727;48.892;9.544;2023-06-14T06:23:28;19.07;;;7.17;;
1467;SDS011;727;48.892;9.544;2023-06-14T06:25:55;13.20;;;7.00;;
1467;SDS011;727;48.892;9.544;2023-06-14T06:28:23;6.27;;;5.77;;
1467;SDS011;727;48.892;9.544;2023-06-14T06:30:51;7.83;;;6.50;;
1467;SDS011;727;48.892;9.544;2023-06-14T06:33:18;8.10;;;5.63;;
1467;SDS011;727;48.892;9.544;2023-06-14T06:35:45;11.13;;;6.13;;
1467;SDS011;727;48.892;9.544;2023-06-14T06:38:12;10.83;;;6.73;;
1467;SDS011;727;48.892;9.544;2023-06-14T06:40:39;7.10;;;6.37;;
1467;SDS011;727;48.892;9.544;2023-06-14T06:43:06;6.53;;;5.83;;
1467;SDS011;727;48.892;9.544;2023-06-14T06:45:32;7.80;;;6.50;;
1467;SDS011;727;48.892;9.544;2023-06-14T06:48:01;8.17;;;6.33;;
1467;SDS011;727;48.892;9.544;2023-06-14T06:50:27;7.10;;;6.40;;
1467;SDS011;727;48.892;9.544;2023-06-14T06:52:55;8.93;;;5.70;;
1467;SDS011;727;48.892;9.544;2023-06-14T06:55:22;5.73;;;5.20;;
1467;SDS011;727;48.892;9.544;2023-06-14T06:57:49;6.43;;;5.17;;
1467;SDS011;727;48.892;9.544;2023-06-14T07:00:17;6.13;;;5.50;;
1467;SDS011;727;48.892;9.544;2023-06-14T07:02:44;9.73;;;6.00;;
1467;SDS011;727;48.892;9.544;2023-06-14T07:05:13;9.30;;;5.33;;
1467;SDS011;727;48.892;9.544;2023-06-14T07:07:40;5.47;;;4.87;;
1467;SDS011;727;48.892;9.544;2023-06-14T07:10:07;8.40;;;5.63;;
1467;SDS011;727;48.892;9.544;2023-06-14T07:12:34;5.70;;;5.17;;
1467;SDS011;727;48.892;9.544;2023-06-14T07:15:04;6.23;;;5.63;;
1467;SDS011;727;48.892;9.544;2023-06-14T07:17:32;6.20;;;5.60;;
1467;SDS011;727;48.892;9.544;2023-06-14T07:19:59;8.33;;;6.13;;
1467;SDS011;727;48.892;9.544;2023-06-14T07:22:32;9.43;;;6.17;;
1467;SDS011;727;48.892;9.544;2023-06-14T07:24:58;6.63;;;5.97;;
1467;SDS011;727;48.892;9.544;2023-06-14T07:27:25;8.40;;;5.50;;
1467;SDS011;727;48.892;9.544;2023-06-14T07:29:52;6.33;;;4.13;;
1467;SDS011;727;48.892;9.544;2023-06-14T07:32:19;8.67;;;6.13;;
1467;SDS011;727;48.892;9.544;2023-06-14T07:34:46;6.27;;;5.23;;
1467;SDS011;727;48.892;9.544;2023-06-14T07:37:13;6.30;;;5.70;;
1467;SDS011;727;48.892;9.544;2023-06-14T07:39:42;5.60;;;4.87;;
1467;SDS011;727;48.892;9.544;2023-06-14T07:42:09;5.10;;;4.60;;
1467;SDS011;727;48.892;9.544;2023-06-14T07:44:36;5.53;;;5.03;;
1467;SDS011;727;48.892;9.544;2023-06-14T07:47:03;5.20;;;4.70;;
1467;SDS011;727;48.892;9.544;2023-06-14T07:49:30;5.10;;;4.67;;
1467;SDS011;727;48.892;9.544;2023-06-14T07:51:59;5.90;;;5.20;;
1467;SDS011;727;48.892;9.544;2023-06-14T07:54:25;5.80;;;5.33;;
1467;SDS011;727;48.892;9.544;2023-06-14T07:56:54;6.20;;;5.60;;
1467;SDS011;727;48.892;9.544;2023-06-14T07:59:21;8.43;;;5.20;;
1467;SDS011;727;48.892;9.544;2023-06-14T08:01:48;6.70;;;5.10;;
1467;SDS011;727;48.892;9.544;2023-06-14T08:04:14;10.13;;;5.03;;
1467;SDS011;727;48.892;9.544;2023-06-14T08:06:41;9.20;;;5.50;;
1467;SDS011;727;48.892;9.544;2023-06-14T08:09:10;11.70;;;5.40;;
1467;SDS011;727;48.892;9.544;2023-06-14T08:11:37;5.73;;;5.20;;
1467;SDS011;727;48.892;9.544;2023-06-14T08:14:05;6.13;;;5.10;;
1467;SDS011;727;48.892;9.544;2023-06-14T08:16:32;6.23;;;4.40;;
1467;SDS011;727;48.892;9.544;2023-06-14T08:18:59;6.77;;;5.07;;
1467;SDS011;727;48.892;9.544;2023-06-14T08:21:26;10.90;;;5.60;;
1467;SDS011;727;48.892;9.544;2023-06-14T08:23:54;9.90;;;6.23;;
1467;SDS011;727;48.892;9.544;2023-06-14T08:26:20;7.17;;;5.20;;
1467;SDS011;727;48.892;9.544;2023-06-14T08:28:48;4.97;;;4.57;;
1467;SDS011;727;48.892;9.544;2023-06-14T08:31:16;6.20;;;4.70;;
1467;SDS011;727;48.892;9.544;2023-06-14T08:33:42;5.57;;;5.17;;
1467;SDS011;727;48.892;9.544;2023-06-14T08:36:12;10.43;;;5.83;;
1467;SDS011;727;48.892;9.544;2023-06-14T08:38:39;10.83;;;5.80;;
1467;SDS011;727;48.892;9.544;2023-06-14T08:41:06;11.80;;;5.70;;
1467;SDS011;727;48.892;9.544;2023-06-14T08:43:34;5.27;;;4.77;;
1467;SDS011;727;48.892;9.544;2023-06-14T08:46:02;5.30;;;4.60;;
1467;SDS011;727;48.892;9.544;2023-06-14T08:48:31;8.43;;;5.83;;
1467;SDS011;727;48.892;9.544;2023-06-14T08:50:59;10.00;;;5.93;;
1467;SDS011;727;48.892;9.544;2023-06-14T08:53:28;5.70;;;4.80;;
1467;SDS011;727;48.892;9.544;2023-06-14T08:55:58;5.60;;;5.03;;
1467;SDS011;727;48.892;9.544;2023-06-14T08:58:26;11.23;;;6.37;;
1467;SDS011;727;48.892;9.544;2023-06-14T09:00:54;7.00;;;5.00;;
1467;SDS011;727;48.892;9.544;2023-06-14T09:03:21;5.73;;;5.33;;
1467;SDS011;727;48.892;9.544;2023-06-14T09:05:56;7.93;;;6.33;;
1467;SDS011;727;48.892;9.544;2023-06-14T09:08:23;6.93;;;5.20;;
1467;SDS011;727;48.892;9.544;2023-06-14T09:10:51;8.57;;;5.57;;
1467;SDS011;727;48.892;9.544;2023-06-14T09:13:17;6.10;;;5.50;;
1467;SDS011;727;48.892;9.544;2023-06-14T09:15:44;5.53;;;5.13;;
1467;SDS011;727;48.892;9.544;2023-06-14T09:18:12;5.83;;;5.27;;
1467;SDS011;727;48.892;9.544;2023-06-14T09:20:39;7.90;;;5.20;;
1467;SDS011;727;48.892;9.544;2023-06-14T09:23:08;5.50;;;4.83;;
1467;SDS011;727;48.892;9.544;2023-06-14T09:25:42;8.03;;;4.93;;
1467;SDS011;727;48.892;9.544;2023-06-14T09:28:09;8.33;;;5.83;;
1467;SDS011;727;48.892;9.544;2023-06-14T09:30:36;6.63;;;5.17;;
1467;SDS011;727;48.892;9.544;2023-06-14T09:33:03;5.10;;;4.63;;
1467;SDS011;727;48.892;9.544;2023-06-14T09:35:30;7.03;;;5.13;;
1467;SDS011;727;48.892;9.544;2023-06-14T09:37:57;7.43;;;6.37;;
1467;SDS011;727;48.892;9.544;2023-06-14T09:40:26;8.17;;;5.60;;
1467;SDS011;727;48.892;9.544;2023-06-14T09:42:54;5.23;;;4.73;;
1467;SDS011;727;48.892;9.544;2023-06-14T09:45:22;7.37;;;5.77;;
1467;SDS011;727;48.892;9.544;2023-06-14T09:47:51;9.97;;;5.00;;
1467;SDS011;727;48.892;9.544;2023-06-14T09:50:17;6.40;;;5.27;;
1467;SDS011;727;48.892;9.544;2023-06-14T09:52:44;5.40;;;4.93;;
1467;SDS011;727;48.892;9.544;2023-06-14T09:55:16;5.90;;;5.03;;
1467;SDS011;727;48.892;9.544;2023-06-14T09:57:45;7.93;;;4.60;;
1467;SDS011;727;48.892;9.544;2023-06-14T10:00:16;8.97;;;5.50;;
1467;SDS011;727;48.892;9.544;2023-06-14T10:02:47;7.27;;;4.87;;
1467;SDS011;727;48.892;9.544;2023-06-14T10:05:19;5.70;;;5.10;;
1467;SDS011;727;48.892;9.544;2023-06-14T10:07:48;11.63;;;4.40;;
1467;SDS011;727;48.892;9.544;2023-06-14T10:10:19;7.40;;;4.37;;
1467;SDS011;727;48.892;9.544;2023-06-14T10:12:52;5.07;;;4.13;;
1467;SDS011;727;48.892;9.544;2023-06-14T10:15:24;5.90;;;4.60;;
1467;SDS011;727;48.892;9.544;2023-06-14T10:17:59;8.97;;;4.83;;
1467;SDS011;727;48.892;9.544;2023-06-14T10:20:33;5.13;;;4.53;;
1467;SDS011;727;48.892;9.544;2023-06-14T10:23:07;8.90;;;5.40;;
1467;SDS011;727;48.892;9.544;2023-06-14T10:25:36;6.67;;;4.80;;
1467;SDS011;727;48.892;9.544;2023-06-14T10:28:06;4.93;;;4.53;;
1467;SDS011;727;48.892;9.544;2023-06-14T10:33:30;5.20;;;4.70;;
1467;SDS011;727;48.892;9.544;2023-06-14T10:36:07;7.73;;;4.77;;
1467;SDS011;727;48.892;9.544;2023-06-14T10:39:01;6.90;;;5.00;;
1467;SDS011;727;48.892;9.544;2023-06-14T10:41:34;5.40;;;4.90;;
1467;SDS011;727;48.892;9.544;2023-06-14T10:47:10;4.77;;;4.33;;
1467;SDS011;727;48.892;9.544;2023-06-14T10:49:49;10.23;;;5.00;;
1467;SDS011;727;48.892;9.544;2023-06-14T10:52:19;7.70;;;4.33;;
1467;SDS011;727;48.892;9.544;2023-06-14T10:55:03;5.83;;;4.07;;
1467;SDS011;727;48.892;9.544;2023-06-14T10:57:34;5.20;;;4.50;;
1467;SDS011;727;48.892;9.544;2023-06-14T11:00:03;8.70;;;4.83;;
1467;SDS011;727;48.892;9.544;2023-06-14T11:02:48;6.17;;;4.50;;
1467;SDS011;727;48.892;9.544;2023-06-14T11:05:41;6.10;;;4.00;;
1467;SDS011;727;48.892;9.544;2023-06-14T11:08:17;5.00;;;4.50;;
1467;SDS011;727;48.892;9.544;2023-06-14T11:11:09;6.00;;;4.47;;
1467;SDS011;727;48.892;9.544;2023-06-14T11:13:37;4.60;;;4.27;;
1467;SDS011;727;48.892;9.544;2023-06-14T11:16:11;4.13;;;3.80;;
1467;SDS011;727;48.892;9.544;2023-06-14T11:18:39;8.23;;;4.33;;
1467;SDS011;727;48.892;9.544;2023-06-14T11:21:07;6.03;;;4.50;;
1467;SDS011;727;48.892;9.544;2023-06-14T11:23:34;5.10;;;4.43;;
1467;SDS011;727;48.892;9.544;2023-06-14T11:26:01;5.23;;;4.83;;
1467;SDS011;727;48.892;9.544;2023-06-14T11:28:36;4.97;;;4.40;;
1467;SDS011;727;48.892;9.544;2023-06-14T11:31:04;5.30;;;4.73;;
1467;SDS011;727;48.892;9.544;2023-06-14T11:33:32;12.07;;;5.70;;
1467;SDS011;727;48.892;9.544;2023-06-14T11:36:01;5.63;;;4.60;;
1467;SDS011;727;48.892;9.544;2023-06-14T11:38:29;5.00;;;4.50;;
1467;SDS011;727;48.892;9.544;2023-06-14T11:40:58;5.20;;;4.30;;
1467;SDS011;727;48.892;9.544;2023-06-14T11:43:26;5.10;;;4.50;;
1467;SDS011;727;48.892;9.544;2023-06-14T11:45:54;6.37;;;4.50;;
1467;SDS011;727;48.892;9.544;2023-06-14T11:48:20;5.03;;;4.47;;
1467;SDS011;727;48.892;9.544;2023-06-14T11:50:50;5.70;;;4.37;;
1467;SDS011;727;48.892;9.544;2023-06-14T11:53:17;6.27;;;4.83;;
1467;SDS011;727;48.892;9.544;2023-06-14T11:55:44;4.73;;;4.03;;
1467;SDS011;727;48.892;9.544;2023-06-14T11:58:12;5.50;;;5.10;;
1467;SDS011;727;48.892;9.544;2023-06-14T12:00:40;5.50;;;4.87;;
1467;SDS011;727;48.892;9.544;2023-06-14T12:03:06;4.87;;;4.20;;
1467;SDS011;727;48.892;9.544;2023-06-14T12:05:33;5.33;;;4.87;;
1467;SDS011;727;48.892;9.544;2023-06-14T12:08:02;7.97;;;5.10;;
1467;SDS011;727;48.892;9.544;2023-06-14T12:10:39;6.17;;;5.23;;
1467;SDS011;727;48.892;9.544;2023-06-14T12:13:08;4.83;;;4.40;;
1467;SDS011;727;48.892;9.544;2023-06-14T12:15:35;6.40;;;4.33;;
1467;SDS011;727;48.892;9.544;2023-06-14T12:18:04;5.73;;;4.10;;
1467;SDS011;727;48.892;9.544;2023-06-14T12:20:33;6.43;;;4.57;;
1467;SDS011;727;48.892;9.544;2023-06-14T12:23:04;5.50;;;4.70;;
1467;SDS011;727;48.892;9.544;2023-06-14T12:25:31;4.80;;;4.20;;
1467;SDS011;727;48.892;9.544;2023-06-14T12:27:59;11.97;;;5.03;;
1467;SDS011;727;48.892;9.544;2023-06-14T12:30:30;7.83;;;5.30;;
1467;SDS011;727;48.892;9.544;2023-06-14T12:32:56;5.07;;;4.67;;
1467;SDS011;727;48.892;9.544;2023-06-14T12:35:26;7.87;;;4.60;;
1467;SDS011;727;48.892;9.544;2023-06-14T12:37:53;6.37;;;4.53;;
1467;SDS011;727;48.892;9.544;2023-06-14T12:40:25;6.17;;;4.70;;
1467;SDS011;727;48.892;9.544;2023-06-14T12:42:52;5.80;;;4.37;;
1467;SDS011;727;48.892;9.544;2023-06-14T12:45:19;5.00;;;4.17;;
1467;SDS011;727;48.892;9.544;2023-06-14T12:47:47;5.00;;;4.53;;
1467;SDS011;727;48.892;9.544;2023-06-14T12:50:14;17.30;;;5.90;;
1467;SDS011;727;48.892;9.544;2023-06-14T12:52:40;4.70;;;4.30;;
1467;SDS011;727;48.892;9.544;2023-06-14T12:55:07;6.73;;;4.70;;
1467;SDS011;727;48.892;9.544;2023-06-14T12:57:35;6.53;;;5.13;;
1467;SDS011;727;48.892;9.544;2023-06-14T13:00:03;4.37;;;3.80;;
1467;SDS011;727;48.892;9.544;2023-06-14T13:02:32;7.37;;;4.87;;
1467;SDS011;727;48.892;9.544;2023-06-14T13:05:00;4.97;;;4.43;;
1467;SDS011;727;48.892;9.544;2023-06-14T13:07:28;6.83;;;5.30;;
1467;SDS011;727;48.892;9.544;2023-06-14T13:09:55;4.60;;;4.20;;
1467;SDS011;727;48.892;9.544;2023-06-14T13:12:22;5.87;;;4.87;;
1467;SDS011;727;48.892;9.544;2023-06-14T13:14:50;5.30;;;4.80;;
1467;SDS011;727;48.892;9.544;2023-06-14T13:17:17;7.77;;;4.20;;
1467;SDS011;727;48.892;9.544;2023-06-14T13:19:45;4.57;;;4.13;;
1467;SDS011;727;48.892;9.544;2023-06-14T13:22:12;4.90;;;4.50;;
1467;SDS011;727;48.892;9.544;2023-06-14T13:24:39;8.13;;;5.20;;
1467;SDS011;727;48.892;9.544;2023-06-14T13:27:07;5.07;;;4.47;;
1467;SDS011;727;48.892;9.544;2023-06-14T13:29:35;4.93;;;4.43;;
1467;SDS011;727;48.892;9.544;2023-06-14T13:32:03;5.20;;;4.70;;
1467;SDS011;727;48.892;9.544;2023-06-14T13:34:31;13.63;;;4.30;;
1467;SDS011;727;48.892;9.544;2023-06-14T13:36:58;4.70;;;4.30;;
1467;SDS011;727;48.892;9.544;2023-06-14T13:39:27;7.87;;;4.97;;
1467;SDS011;727;48.892;9.544;2023-06-14T13:41:56;19.23;;;5.23;;
1467;SDS011;727;48.892;9.544;2023-06-14T13:44:23;6.03;;;4.77;;
1467;SDS011;727;48.892;9.544;2023-06-14T13:46:50;5.37;;;4.87;;
1467;SDS011;727;48.892;9.544;2023-06-14T13:49:18;4.63;;;4.33;;
1467;SDS011;727;48.892;9.544;2023-06-14T13:51:45;5.03;;;4.23;;
1467;SDS011;727;48.892;9.544;2023-06-14T13:54:12;5.60;;;3.97;;
1467;SDS011;727;48.892;9.544;2023-06-14T13:56:40;4.00;;;3.50;;
1467;SDS011;727;48.892;9.544;2023-06-14T13:59:07;5.33;;;4.17;;
1467;SDS011;727;48.892;9.544;2023-06-14T14:01:34;5.00;;;4.23;;
1467;SDS011;727;48.892;9.544;2023-06-14T14:04:01;5.13;;;4.40;;
1467;SDS011;727;48.892;9.544;2023-06-14T14:06:29;4.40;;;4.10;;
1467;SDS011;727;48.892;9.544;2023-06-14T14:08:56;5.63;;;4.20;;
1467;SDS011;727;48.892;9.544;2023-06-14T14:11:23;5.40;;;4.23;;
1467;SDS011;727;48.892;9.544;2023-06-14T14:13:49;4.97;;;4.13;;
1467;SDS011;727;48.892;9.544;2023-06-14T14:16:16;7.70;;;4.60;;
1467;SDS011;727;48.892;9.544;2023-06-14T14:18:43;8.30;;;4.80;;
1467;SDS011;727;48.892;9.544;2023-06-14T14:21:13;6.00;;;4.87;;
1467;SDS011;727;48.892;9.544;2023-06-14T14:23:42;5.57;;;4.60;;
1467;SDS011;727;48.892;9.544;2023-06-14T14:26:09;5.50;;;5.00;;
1467;SDS011;727;48.892;9.544;2023-06-14T14:28:35;5.33;;;4.47;;
1467;SDS011;727;48.892;9.544;2023-06-14T14:31:02;8.40;;;4.30;;
1467;SDS011;727;48.892;9.544;2023-06-14T14:33:29;5.93;;;4.87;;
1467;SDS011;727;48.892;9.544;2023-06-14T14:35:56;6.20;;;4.50;;
1467;SDS011;727;48.892;9.544;2023-06-14T14:38:24;6.63;;;4.23;;
1467;SDS011;727;48.892;9.544;2023-06-14T14:40:53;5.40;;;4.00;;
1467;SDS011;727;48.892;9.544;2023-06-14T14:43:20;4.90;;;4.40;;
1467;SDS011;727;48.892;9.544;2023-06-14T14:45:46;6.87;;;4.70;;
1467;SDS011;727;48.892;9.544;2023-06-14T14:48:13;5.80;;;3.87;;
1467;SDS011;727;48.892;9.544;2023-06-14T14:50:40;5.10;;;4.37;;
1467;SDS011;727;48.892;9.544;2023-06-14T14:53:15;5.40;;;4.70;;
1467;SDS011;727;48.892;9.544;2023-06-14T14:55:42;5.53;;;4.77;;
1467;SDS011;727;48.892;9.544;2023-06-14T14:58:11;4.60;;;4.20;;
1467;SDS011;727;48.892;9.544;2023-06-14T15:00:41;4.20;;;3.90;;
1467;SDS011;727;48.892;9.544;2023-06-14T15:03:08;4.77;;;4.40;;
1467;SDS011;727;48.892;9.544;2023-06-14T15:05:35;5.13;;;4.53;;
1467;SDS011;727;48.892;9.544;2023-06-14T15:08:02;6.83;;;4.50;;
1467;SDS011;727;48.892;9.544;2023-06-14T15:10:30;4.77;;;4.10;;
1467;SDS011;727;48.892;9.544;2023-06-14T15:12:57;7.93;;;4.03;;
1467;SDS011;727;48.892;9.544;2023-06-14T15:15:28;5.50;;;5.10;;
1467;SDS011;727;48.892;9.544;2023-06-14T15:17:55;6.73;;;4.43;;
1467;SDS011;727;48.892;9.544;2023-06-14T15:20:22;10.50;;;9.57;;
1467;SDS011;727;48.892;9.544;2023-06-14T15:22:49;4.33;;;4.03;;
1467;SDS011;727;48.892;9.544;2023-06-14T15:25:16;5.50;;;4.03;;
1467;SDS011;727;48.892;9.544;2023-06-14T15:27:43;4.80;;;3.90;;
1467;SDS011;727;48.892;9.544;2023-06-14T15:30:12;7.53;;;4.30;;
1467;SDS011;727;48.892;9.544;2023-06-14T15:32:41;5.60;;;3.90;;
1467;SDS011;727;48.892;9.544;2023-06-14T15:35:08;5.47;;;4.93;;
1467;SDS011;727;48.892;9.544;2023-06-14T15:37:35;5.63;;;5.10;;
1467;SDS011;727;48.892;9.544;2023-06-14T15:40:02;5.63;;;4.00;;